createdAt,value
2023-03-05T00:00:07.746Z,68.00
2023-03-05T00:01:07.768Z,67.76
2023-03-05T00:02:07.793Z,66.70
2023-03-05T00:03:07.745Z,66.83
2023-03-05T00:04:07.748Z,66.63
2023-03-05T00:05:07.704Z,68.07
2023-03-05T00:06:07.697Z,67.86
2023-03-05T00:07:07.722Z,68.07
2023-03-05T00:08:07.713Z,68.93
2023-03-05T00:09:07.700Z,70.06
2023-03-05T00:10:07.696Z,70.03
2023-03-05T00:11:07.676Z,70.44
2023-03-05T00:12:07.709Z,69.93
2023-03-05T00:13:07.669Z,70.37
2023-03-05T00:14:07.647Z,70.23
2023-03-05T00:15:07.657Z,71.16
2023-03-05T00:16:07.750Z,71.06
2023-03-05T00:17:07.656Z,70.65
2023-03-05T00:18:07.623Z,70.54
2023-03-05T00:19:07.645Z,70.75
2023-03-05T00:20:07.625Z,70.75
2023-03-05T00:21:07.612Z,71.58
2023-03-05T00:22:07.635Z,71.61
2023-03-05T00:23:07.599Z,72.54
2023-03-05T00:24:07.604Z,72.74
2023-03-05T00:25:07.655Z,72.71
2023-03-05T00:26:07.631Z,72.71
2023-03-05T00:27:07.585Z,72.40
2023-03-05T00:28:07.600Z,72.85
2023-03-05T00:29:08.157Z,72.61
2023-03-05T00:30:07.570Z,72.92
2023-03-05T00:31:07.595Z,73.02
2023-03-05T00:32:07.626Z,73.16
2023-03-05T00:33:07.552Z,72.64
2023-03-05T00:34:07.550Z,72.81
2023-03-05T00:35:07.530Z,72.81
2023-03-05T00:36:07.560Z,72.95
2023-03-05T00:37:07.579Z,72.64
2023-03-05T00:38:07.541Z,72.54
2023-03-05T00:39:07.505Z,73.36
2023-03-05T00:40:07.649Z,73.47
2023-03-05T00:41:07.487Z,74.02
2023-03-05T00:42:07.479Z,74.22
2023-03-05T00:43:07.537Z,74.50
2023-03-05T00:44:07.477Z,72.47
2023-03-05T00:45:07.476Z,72.23
2023-03-05T00:46:07.562Z,71.41
2023-03-05T00:47:07.461Z,71.23
2023-03-05T00:48:07.466Z,72.91
2023-03-05T00:49:07.505Z,74.05
2023-03-05T00:50:07.456Z,72.91
2023-03-05T00:51:07.419Z,72.85
2023-03-05T00:52:07.468Z,72.74
2023-03-05T00:53:07.441Z,72.85
2023-03-05T00:54:07.472Z,73.85
2023-03-05T00:55:07.462Z,74.60
2023-03-05T00:56:07.390Z,75.01
2023-03-05T00:57:07.411Z,74.50
2023-03-05T00:58:07.382Z,73.85
2023-03-05T00:59:07.426Z,72.71
2023-03-05T01:00:07.364Z,72.81
2023-03-05T01:01:07.353Z,73.12
2023-03-05T01:02:07.362Z,72.71
2023-03-05T01:03:07.334Z,73.64
2023-03-05T01:04:08.357Z,74.29
2023-03-05T01:05:07.404Z,74.98
2023-03-05T01:06:07.314Z,74.15
2023-03-05T01:07:07.359Z,73.85
2023-03-05T01:08:07.324Z,74.05
2023-03-05T01:09:07.294Z,73.12
2023-03-05T01:10:07.311Z,72.57
2023-03-05T01:11:07.284Z,71.95
2023-03-05T01:12:07.271Z,72.71
2023-03-05T01:13:07.298Z,71.88
2023-03-05T01:14:07.260Z,72.36
2023-03-05T01:15:07.277Z,72.53
2023-03-05T01:16:07.270Z,72.85
2023-03-05T01:17:07.235Z,74.33
2023-03-05T01:18:07.236Z,73.47
2023-03-05T01:19:07.227Z,72.85
2023-03-05T01:20:07.233Z,72.61
2023-03-05T01:21:07.242Z,72.61
2023-03-05T01:22:07.203Z,72.81
2023-03-05T01:23:07.187Z,72.09
2023-03-05T01:24:07.214Z,71.78
2023-03-05T01:25:07.199Z,72.19
2023-03-05T01:26:07.173Z,72.50
2023-03-05T01:27:07.185Z,72.30
2023-03-05T01:28:07.169Z,72.91
2023-03-05T01:29:07.157Z,72.71
2023-03-05T01:30:07.200Z,72.50
2023-03-05T01:31:07.168Z,72.71
2023-03-05T01:32:07.186Z,72.40
2023-03-05T01:33:07.184Z,71.67
2023-03-05T01:34:07.117Z,72.09
2023-03-05T01:35:07.137Z,72.40
2023-03-05T01:36:07.185Z,72.61
2023-03-05T01:37:07.154Z,72.40
2023-03-05T01:38:07.671Z,72.47
2023-03-05T01:39:07.124Z,71.75
2023-03-05T01:40:07.091Z,71.78
2023-03-05T01:41:07.084Z,72.40
2023-03-05T01:42:07.130Z,72.19
2023-03-05T01:43:07.073Z,72.91
2023-03-05T01:44:07.071Z,72.91
2023-03-05T01:45:07.092Z,71.88
2023-03-05T01:46:07.248Z,71.88
2023-03-05T01:47:07.053Z,71.23
2023-03-05T01:48:07.069Z,71.44
2023-03-05T01:49:07.051Z,70.61
2023-03-05T01:50:07.042Z,71.26
2023-03-05T01:51:07.034Z,71.78
2023-03-05T01:52:07.129Z,71.75
2023-03-05T01:53:07.196Z,70.85
2023-03-05T01:54:07.024Z,71.47
2023-03-05T01:55:07.028Z,72.43
2023-03-05T01:56:06.986Z,71.64
2023-03-05T01:57:06.981Z,73.08
2023-03-05T01:58:07.009Z,73.08
2023-03-05T01:59:07.003Z,72.88
2023-03-05T02:00:06.987Z,72.78
2023-03-05T02:01:07.045Z,72.16
2023-03-05T02:02:06.953Z,71.71
2023-03-05T02:03:06.942Z,72.47
2023-03-05T02:04:07.044Z,71.53
2023-03-05T02:05:06.927Z,70.61
2023-03-05T02:06:07.928Z,72.29
2023-03-05T02:07:06.946Z,72.88
2023-03-05T02:08:06.912Z,72.39
2023-03-05T02:09:06.920Z,72.47
2023-03-05T02:10:06.908Z,72.26
2023-03-05T02:11:07.895Z,71.64
2023-03-05T02:12:06.887Z,71.71
2023-03-05T02:13:06.925Z,71.84
2023-03-05T02:14:09.044Z,72.67
2023-03-05T02:15:06.879Z,72.88
2023-03-05T02:16:06.932Z,72.98
2023-03-05T02:17:06.868Z,72.67
2023-03-05T02:18:06.993Z,73.71
2023-03-05T02:19:06.896Z,74.63
2023-03-05T02:20:06.847Z,74.60
2023-03-05T02:21:06.837Z,72.98
2023-03-05T02:22:06.836Z,73.67
2023-03-05T02:23:06.820Z,73.98
2023-03-05T02:24:06.834Z,74.02
2023-03-05T02:25:06.843Z,74.33
2023-03-05T02:26:06.956Z,74.43
2023-03-05T02:27:06.810Z,74.84
2023-03-05T02:28:06.804Z,74.12
2023-03-05T02:29:06.796Z,74.12
2023-03-05T02:30:06.816Z,74.22
2023-03-05T02:31:06.791Z,74.88
2023-03-05T02:32:06.906Z,75.91
2023-03-05T02:33:06.767Z,75.70
2023-03-05T02:34:06.951Z,75.84
2023-03-05T02:35:06.758Z,77.15
2023-03-05T02:36:06.776Z,77.05
2023-03-05T02:37:06.784Z,76.74
2023-03-05T02:38:06.749Z,77.05
2023-03-05T02:39:06.738Z,76.43
2023-03-05T02:40:06.760Z,75.81
2023-03-05T02:41:06.724Z,75.70
2023-03-05T02:42:06.752Z,75.67
2023-03-05T02:43:06.748Z,75.78
2023-03-05T02:44:06.718Z,76.29
2023-03-05T02:45:06.713Z,75.78
2023-03-05T02:46:06.754Z,75.98
2023-03-05T02:47:06.693Z,76.18
2023-03-05T02:48:06.707Z,75.98
2023-03-05T02:49:06.728Z,76.60
2023-03-05T02:50:06.682Z,76.18
2023-03-05T02:51:06.676Z,75.36
2023-03-05T02:52:06.799Z,75.05
2023-03-05T02:53:06.687Z,74.84
2023-03-05T02:54:06.655Z,76.09
2023-03-05T02:55:06.669Z,75.78
2023-03-05T02:56:06.638Z,75.50
2023-03-05T02:57:06.687Z,75.88
2023-03-05T02:58:06.660Z,75.67
2023-03-05T02:59:06.625Z,76.29
2023-03-05T03:00:06.684Z,74.22
2023-03-05T03:01:06.693Z,74.15
2023-03-05T03:02:06.604Z,75.50
2023-03-05T03:03:06.668Z,75.70
2023-03-05T03:04:06.622Z,76.57
2023-03-05T03:05:06.599Z,76.57
2023-03-05T03:06:06.582Z,76.57
2023-03-05T03:07:06.605Z,76.78
2023-03-05T03:08:06.562Z,76.78
2023-03-05T03:09:06.584Z,76.88
2023-03-05T03:10:06.576Z,76.98
2023-03-05T03:11:06.550Z,76.32
2023-03-05T03:12:06.536Z,76.53
2023-03-05T03:13:06.557Z,76.12
2023-03-05T03:14:06.550Z,75.84
2023-03-05T03:15:06.524Z,76.46
2023-03-05T03:16:06.559Z,76.88
2023-03-05T03:17:06.556Z,76.43
2023-03-05T03:18:07.499Z,75.70
2023-03-05T03:19:06.547Z,75.95
2023-03-05T03:20:06.513Z,75.95
2023-03-05T03:21:06.504Z,76.05
2023-03-05T03:22:06.548Z,76.88
2023-03-05T03:23:06.478Z,76.84
2023-03-05T03:24:06.474Z,76.22
2023-03-05T03:25:06.499Z,76.46
2023-03-05T03:26:06.472Z,76.46
2023-03-05T03:27:06.464Z,76.53
2023-03-05T03:28:06.496Z,76.01
2023-03-05T03:29:06.453Z,75.40
2023-03-05T03:30:06.558Z,75.74
2023-03-05T03:31:06.611Z,76.26
2023-03-05T03:32:06.452Z,76.01
2023-03-05T03:33:06.479Z,76.01
2023-03-05T03:34:06.435Z,76.22
2023-03-05T03:35:06.425Z,75.95
2023-03-05T03:36:06.465Z,75.91
2023-03-05T03:37:06.439Z,76.01
2023-03-05T03:38:06.401Z,76.57
2023-03-05T03:39:06.397Z,77.09
2023-03-05T03:40:06.412Z,77.39
2023-03-05T03:41:06.386Z,76.98
2023-03-05T03:42:06.384Z,77.15
2023-03-05T03:43:06.390Z,76.01
2023-03-05T03:44:06.368Z,75.50
2023-03-05T03:45:06.358Z,74.67
2023-03-05T03:46:06.421Z,75.32
2023-03-05T03:47:06.392Z,76.36
2023-03-05T03:48:06.346Z,76.46
2023-03-05T03:49:06.343Z,76.67
2023-03-05T03:50:06.335Z,76.46
2023-03-05T03:51:06.336Z,76.67
2023-03-05T03:52:06.327Z,76.46
2023-03-05T03:53:06.319Z,76.67
2023-03-05T03:54:06.329Z,76.67
2023-03-05T03:55:06.309Z,76.46
2023-03-05T03:56:06.294Z,77.09
2023-03-05T03:57:06.302Z,77.39
2023-03-05T03:58:06.332Z,77.47
2023-03-05T03:59:06.268Z,76.88
2023-03-05T04:00:06.296Z,76.74
2023-03-05T04:01:06.268Z,76.88
2023-03-05T04:02:06.476Z,76.64
2023-03-05T04:03:06.250Z,76.39
2023-03-05T04:04:06.339Z,76.39
2023-03-05T04:05:06.253Z,76.09
2023-03-05T04:06:06.245Z,74.63
2023-03-05T04:07:06.243Z,74.53
2023-03-05T04:08:06.270Z,75.46
2023-03-05T04:09:06.224Z,75.46
2023-03-05T04:10:06.254Z,75.46
2023-03-05T04:11:06.234Z,75.36
2023-03-05T04:12:06.226Z,75.36
2023-03-05T04:13:06.212Z,74.95
2023-03-05T04:14:06.222Z,74.40
2023-03-05T04:15:06.190Z,74.29
2023-03-05T04:16:06.253Z,74.98
2023-03-05T04:17:06.193Z,74.40
2023-03-05T04:18:06.187Z,73.16
2023-03-05T04:19:06.170Z,70.98
2023-03-05T04:20:06.199Z,70.98
2023-03-05T04:21:06.152Z,71.40
2023-03-05T04:22:06.162Z,71.74
2023-03-05T04:23:06.213Z,72.91
2023-03-05T04:24:06.157Z,74.05
2023-03-05T04:25:06.146Z,72.81
2023-03-05T04:26:06.157Z,73.05
2023-03-05T04:27:06.118Z,74.08
2023-03-05T04:28:06.147Z,74.36
2023-03-05T04:29:06.135Z,74.46
2023-03-05T04:30:06.100Z,74.98
2023-03-05T04:31:06.129Z,74.15
2023-03-05T04:32:06.123Z,74.33
2023-03-05T04:33:06.099Z,75.29
2023-03-05T04:34:06.084Z,74.88
2023-03-05T04:35:06.105Z,75.15
2023-03-05T04:36:06.057Z,74.33
2023-03-05T04:37:06.049Z,73.08
2023-03-05T04:38:06.079Z,73.22
2023-03-05T04:39:06.064Z,72.57
2023-03-05T04:40:06.025Z,72.78
2023-03-05T04:41:06.053Z,74.15
2023-03-05T04:42:06.032Z,74.15
2023-03-05T04:43:06.025Z,74.29
2023-03-05T04:44:06.083Z,75.53
2023-03-05T04:45:06.006Z,75.74
2023-03-05T04:46:06.005Z,76.19
2023-03-05T04:47:06.034Z,76.81
2023-03-05T04:48:05.989Z,76.81
2023-03-05T04:49:05.986Z,77.43
2023-03-05T04:50:06.002Z,77.64
2023-03-05T04:51:05.963Z,77.70
2023-03-05T04:52:05.961Z,77.19
2023-03-05T04:53:05.989Z,77.01
2023-03-05T04:54:05.971Z,77.43
2023-03-05T04:55:05.953Z,78.47
2023-03-05T04:56:05.963Z,78.16
2023-03-05T04:57:05.940Z,78.02
2023-03-05T04:58:05.923Z,77.81
2023-03-05T04:59:05.967Z,77.53
2023-03-05T05:00:05.941Z,77.70
2023-03-05T05:01:06.714Z,77.19
2023-03-05T05:02:06.033Z,77.29
2023-03-05T05:03:05.972Z,76.74
2023-03-05T05:04:05.944Z,76.29
2023-03-05T05:05:05.889Z,76.01
2023-03-05T05:06:05.988Z,76.53
2023-03-05T05:07:05.883Z,76.67
2023-03-05T05:08:06.046Z,76.43
2023-03-05T05:09:05.857Z,76.88
2023-03-05T05:10:06.520Z,76.78
2023-03-05T05:11:05.858Z,77.70
2023-03-05T05:12:05.850Z,77.60
2023-03-05T05:13:06.002Z,77.22
2023-03-05T05:14:05.904Z,77.01
2023-03-05T05:15:05.941Z,78.05
2023-03-05T05:16:05.867Z,78.78
2023-03-05T05:17:05.865Z,78.67
2023-03-05T05:18:05.838Z,78.47
2023-03-05T05:19:05.870Z,78.78
2023-03-05T05:20:05.825Z,79.13
2023-03-05T05:21:05.797Z,79.50
2023-03-05T05:22:05.834Z,78.92
2023-03-05T05:23:05.814Z,79.06
2023-03-05T05:24:05.786Z,79.16
2023-03-05T05:25:05.806Z,79.92
2023-03-05T05:26:05.757Z,79.61
2023-03-05T05:27:05.764Z,80.44
2023-03-05T05:28:05.816Z,81.82
2023-03-05T05:29:05.776Z,82.03
2023-03-05T05:30:05.758Z,82.03
2023-03-05T05:31:05.777Z,81.89
2023-03-05T05:32:05.803Z,82.31
2023-03-05T05:33:05.745Z,81.48
2023-03-05T05:34:05.754Z,81.54
2023-03-05T05:35:05.733Z,80.92
2023-03-05T05:36:05.712Z,80.61
2023-03-05T05:37:05.737Z,81.02
2023-03-05T05:38:05.728Z,80.61
2023-03-05T05:39:05.701Z,80.51
2023-03-05T05:40:05.744Z,80.71
2023-03-05T05:41:05.682Z,81.02
2023-03-05T05:42:05.672Z,80.92
2023-03-05T05:43:05.730Z,80.96
2023-03-05T05:44:05.671Z,80.51
2023-03-05T05:45:05.685Z,80.61
2023-03-05T05:46:05.856Z,80.68
2023-03-05T05:47:05.660Z,80.36
2023-03-05T05:48:05.699Z,79.81
2023-03-05T05:49:05.701Z,79.30
2023-03-05T05:50:05.648Z,78.43
2023-03-05T05:51:05.617Z,78.67
2023-03-05T05:52:05.655Z,79.47
2023-03-05T05:53:05.629Z,78.88
2023-03-05T05:54:05.632Z,79.19
2023-03-05T05:55:05.692Z,79.09
2023-03-05T05:56:05.595Z,78.57
2023-03-05T05:57:05.594Z,78.74
2023-03-05T05:58:05.614Z,78.64
2023-03-05T05:59:05.636Z,78.95
2023-03-05T06:00:05.604Z,79.05
2023-03-05T06:01:05.651Z,79.05
2023-03-05T06:02:05.644Z,78.43
2023-03-05T06:03:05.639Z,78.39
2023-03-05T06:04:05.549Z,77.56
2023-03-05T06:05:05.596Z,77.56
2023-03-05T06:06:05.599Z,77.56
2023-03-05T06:07:05.533Z,78.12
2023-03-05T06:08:05.553Z,78.43
2023-03-05T06:09:05.528Z,78.33
2023-03-05T06:10:05.566Z,77.98
2023-03-05T06:11:05.565Z,77.77
2023-03-05T06:12:05.581Z,77.47
2023-03-05T06:13:05.498Z,77.53
2023-03-05T06:14:05.529Z,76.74
2023-03-05T06:15:05.510Z,76.43
2023-03-05T06:16:05.525Z,76.95
2023-03-05T06:17:05.523Z,76.84
2023-03-05T06:18:05.471Z,76.91
2023-03-05T06:19:05.471Z,76.60
2023-03-05T06:20:05.483Z,74.95
2023-03-05T06:21:05.478Z,75.15
2023-03-05T06:22:05.448Z,76.05
2023-03-05T06:23:05.464Z,76.15
2023-03-05T06:24:05.436Z,76.15
2023-03-05T06:25:05.440Z,74.81
2023-03-05T06:26:05.607Z,73.95
2023-03-05T06:27:05.419Z,74.67
2023-03-05T06:28:05.445Z,74.57
2023-03-05T06:29:05.437Z,74.77
2023-03-05T06:30:05.402Z,74.77
2023-03-05T06:31:05.453Z,74.67
2023-03-05T06:32:05.431Z,74.46
2023-03-05T06:33:05.386Z,75.09
2023-03-05T06:34:05.389Z,75.32
2023-03-05T06:35:05.418Z,76.29
2023-03-05T06:36:05.384Z,75.84
2023-03-05T06:37:05.373Z,75.53
2023-03-05T06:38:05.396Z,74.74
2023-03-05T06:39:05.342Z,75.01
2023-03-05T06:40:05.341Z,74.63
2023-03-05T06:41:05.360Z,74.95
2023-03-05T06:42:05.355Z,75.36
2023-03-05T06:43:06.243Z,75.05
2023-03-05T06:44:05.328Z,75.05
2023-03-05T06:45:05.322Z,75.46
2023-03-05T06:46:05.393Z,75.26
2023-03-05T06:47:06.324Z,76.22
2023-03-05T06:48:05.307Z,76.22
2023-03-05T06:49:05.326Z,75.32
2023-03-05T06:50:05.325Z,77.09
2023-03-05T06:51:05.293Z,78.05
2023-03-05T06:52:05.276Z,79.64
2023-03-05T06:53:05.268Z,80.92
2023-03-05T06:54:06.121Z,81.82
2023-03-05T06:55:05.290Z,82.54
2023-03-05T06:56:05.337Z,82.54
2023-03-05T06:57:05.279Z,81.88
2023-03-05T06:58:05.243Z,82.19
2023-03-05T06:59:05.277Z,81.68
2023-03-05T07:00:05.238Z,81.23
2023-03-05T07:01:05.276Z,81.12
2023-03-05T07:02:05.314Z,81.43
2023-03-05T07:03:05.211Z,80.71
2023-03-05T07:04:05.229Z,81.23
2023-03-05T07:05:05.214Z,81.23
2023-03-05T07:06:05.205Z,81.74
2023-03-05T07:07:05.233Z,81.23
2023-03-05T07:08:05.186Z,80.77
2023-03-05T07:09:05.465Z,80.26
2023-03-05T07:10:05.221Z,79.91
2023-03-05T07:11:05.179Z,79.70
2023-03-05T07:12:05.199Z,80.05
2023-03-05T07:13:05.168Z,79.43
2023-03-05T07:14:05.313Z,79.80
2023-03-05T07:15:05.146Z,79.80
2023-03-05T07:16:05.182Z,79.80
2023-03-05T07:17:05.132Z,79.77
2023-03-05T07:18:05.184Z,79.46
2023-03-05T07:19:05.158Z,78.91
2023-03-05T07:20:05.134Z,78.18
2023-03-05T07:21:05.211Z,78.18
2023-03-05T07:22:05.098Z,78.25
2023-03-05T07:23:05.181Z,77.94
2023-03-05T07:24:05.180Z,77.59
2023-03-05T07:25:05.112Z,76.90
2023-03-05T07:26:05.072Z,76.56
2023-03-05T07:27:05.105Z,76.46
2023-03-05T07:28:05.155Z,75.43
2023-03-05T07:29:05.158Z,75.18
2023-03-05T07:30:05.200Z,75.84
2023-03-05T07:31:05.122Z,75.87
2023-03-05T07:32:05.147Z,76.94
2023-03-05T07:33:05.067Z,76.81
2023-03-05T07:34:05.080Z,76.94
2023-03-05T07:35:05.023Z,77.56
2023-03-05T07:36:05.108Z,78.28
2023-03-05T07:37:05.014Z,78.70
2023-03-05T07:38:05.012Z,79.42
2023-03-05T07:39:05.059Z,79.63
2023-03-05T07:40:05.060Z,79.69
2023-03-05T07:41:04.985Z,78.87
2023-03-05T07:42:04.984Z,78.97
2023-03-05T07:43:04.987Z,77.70
2023-03-05T07:44:04.962Z,76.63
2023-03-05T07:45:04.992Z,76.08
2023-03-05T07:46:05.131Z,75.26
2023-03-05T07:47:04.934Z,73.78
2023-03-05T07:48:05.100Z,74.22
2023-03-05T07:49:04.948Z,74.67
2023-03-05T07:50:04.934Z,73.95
2023-03-05T07:51:04.939Z,76.15
2023-03-05T07:52:04.919Z,76.04
2023-03-05T07:53:04.933Z,76.12
2023-03-05T07:54:04.906Z,75.32
2023-03-05T07:55:04.906Z,75.60
2023-03-05T07:56:04.945Z,75.56
2023-03-05T07:57:04.943Z,74.22
2023-03-05T07:58:04.891Z,74.33
2023-03-05T07:59:04.898Z,72.71
2023-03-05T08:00:04.868Z,73.26
2023-03-05T08:01:04.866Z,72.78
2023-03-05T08:02:05.040Z,74.29
2023-03-05T08:03:04.880Z,72.57
2023-03-05T08:04:04.893Z,73.81
2023-03-05T08:05:05.518Z,74.22
2023-03-05T08:06:04.821Z,73.71
2023-03-05T08:07:04.842Z,72.88
2023-03-05T08:08:04.825Z,74.12
2023-03-05T08:09:04.814Z,73.91
2023-03-05T08:10:04.814Z,74.77
2023-03-05T08:11:04.821Z,75.87
2023-03-05T08:12:04.845Z,73.85
2023-03-05T08:13:04.784Z,74.74
2023-03-05T08:14:04.803Z,74.22
2023-03-05T08:15:04.800Z,74.67
2023-03-05T08:16:04.817Z,74.22
2023-03-05T08:17:04.762Z,74.46
2023-03-05T08:18:04.784Z,74.63
2023-03-05T08:19:04.754Z,74.02
2023-03-05T08:20:04.767Z,73.68
2023-03-05T08:21:04.750Z,73.16
2023-03-05T08:22:04.716Z,72.64
2023-03-05T08:23:04.734Z,71.68
2023-03-05T08:24:04.754Z,71.99
2023-03-05T08:25:04.748Z,73.02
2023-03-05T08:26:04.708Z,74.19
2023-03-05T08:27:04.740Z,72.50
2023-03-05T08:28:04.700Z,72.33
2023-03-05T08:29:04.687Z,72.67
2023-03-05T08:30:04.730Z,72.85
2023-03-05T08:31:04.686Z,72.54
2023-03-05T08:32:04.678Z,72.50
2023-03-05T08:33:04.718Z,72.19
2023-03-05T08:34:04.661Z,72.71
2023-03-05T08:35:04.661Z,72.81
2023-03-05T08:36:04.698Z,72.85
2023-03-05T08:37:13.499Z,72.74
2023-03-05T08:38:04.643Z,72.81
2023-03-05T08:39:04.641Z,72.81
2023-03-05T08:40:04.645Z,72.40
2023-03-05T08:41:04.628Z,74.19
2023-03-05T08:42:04.665Z,74.40
2023-03-05T08:43:04.618Z,74.05
2023-03-05T08:44:04.599Z,73.64
2023-03-05T08:45:04.635Z,73.02
2023-03-05T08:46:04.578Z,72.50
2023-03-05T08:47:04.586Z,73.88
2023-03-05T08:48:04.614Z,74.02
2023-03-05T08:49:04.577Z,74.74
2023-03-05T08:50:04.550Z,74.40
2023-03-05T08:51:04.584Z,74.71
2023-03-05T08:52:04.575Z,74.43
2023-03-05T08:53:04.672Z,76.53
2023-03-05T08:54:04.571Z,76.08
2023-03-05T08:55:04.530Z,76.18
2023-03-05T08:56:04.550Z,76.25
2023-03-05T08:57:04.543Z,75.60
2023-03-05T08:58:04.560Z,77.04
2023-03-05T08:59:04.512Z,77.08
2023-03-05T09:00:04.502Z,76.25
2023-03-05T09:01:04.560Z,75.60
2023-03-05T09:02:04.549Z,76.21
2023-03-05T09:03:04.498Z,75.94
2023-03-05T09:04:04.495Z,74.05
2023-03-05T09:05:04.500Z,73.98
2023-03-05T09:06:04.475Z,71.45
2023-03-05T09:07:04.485Z,69.70
2023-03-05T09:08:05.369Z,67.90
2023-03-05T09:09:04.474Z,67.97
2023-03-05T09:10:04.478Z,67.28
2023-03-05T09:11:04.430Z,67.41
2023-03-05T09:12:04.488Z,67.44
2023-03-05T09:13:05.106Z,68.57
2023-03-05T09:14:04.480Z,67.76
2023-03-05T09:15:04.430Z,66.57
2023-03-05T09:16:04.496Z,66.06
2023-03-05T09:17:04.495Z,65.24
2023-03-05T09:18:04.459Z,64.48
2023-03-05T09:19:04.428Z,59.85
2023-03-05T09:20:04.440Z,60.69
2023-03-05T09:21:04.404Z,60.88
2023-03-05T09:22:04.409Z,64.07
2023-03-05T09:23:04.420Z,65.36
2023-03-05T09:24:04.415Z,67.35
2023-03-05T09:25:04.461Z,67.68
2023-03-05T09:26:04.375Z,67.48
2023-03-05T09:27:04.365Z,67.99
2023-03-05T09:28:04.400Z,68.10
2023-03-05T09:29:04.343Z,68.19
2023-03-05T09:30:04.327Z,68.19
2023-03-05T09:31:04.341Z,67.65
2023-03-05T09:32:04.528Z,66.80
2023-03-05T09:33:04.450Z,64.51
2023-03-05T09:34:04.311Z,64.89
2023-03-05T09:35:04.315Z,64.89
2023-03-05T09:36:04.279Z,64.59
2023-03-05T09:37:04.321Z,64.72
2023-03-05T09:38:04.337Z,66.31
2023-03-05T09:39:04.274Z,66.07
2023-03-05T09:40:04.340Z,65.86
2023-03-05T09:41:04.272Z,67.41
2023-03-05T09:42:04.295Z,67.27
2023-03-05T09:43:04.249Z,67.68
2023-03-05T09:44:04.351Z,67.98
2023-03-05T09:45:04.259Z,68.60
2023-03-05T09:46:04.382Z,69.35
2023-03-05T09:47:04.253Z,70.62
2023-03-05T09:48:04.249Z,71.51
2023-03-05T09:49:04.347Z,70.72
2023-03-05T09:50:04.208Z,70.83
2023-03-05T09:51:04.197Z,70.62
2023-03-05T09:52:04.195Z,72.92
2023-03-05T09:53:04.250Z,73.98
2023-03-05T09:54:04.179Z,74.26
2023-03-05T09:55:04.212Z,74.15
2023-03-05T09:56:04.185Z,74.02
2023-03-05T09:57:04.227Z,72.54
2023-03-05T09:58:04.188Z,73.57
2023-03-05T09:59:04.235Z,72.85
2023-03-05T10:00:04.194Z,72.85
2023-03-05T10:01:04.154Z,72.75
2023-03-05T10:02:04.154Z,72.81
2023-03-05T10:03:04.295Z,72.20
2023-03-05T10:04:04.177Z,73.57
2023-03-05T10:05:04.225Z,74.12
2023-03-05T10:06:04.166Z,73.98
2023-03-05T10:07:04.116Z,74.63
2023-03-05T10:08:04.111Z,74.12
2023-03-05T10:09:04.098Z,73.95
2023-03-05T10:10:04.164Z,73.98
2023-03-05T10:11:04.074Z,72.54
2023-03-05T10:12:04.106Z,73.68
2023-03-05T10:13:04.071Z,73.30
2023-03-05T10:14:04.112Z,71.17
2023-03-05T10:15:04.063Z,69.60
2023-03-05T10:16:04.098Z,67.65
2023-03-05T10:17:04.046Z,68.37
2023-03-05T10:18:04.063Z,66.87
2023-03-05T10:19:04.580Z,67.08
2023-03-05T10:20:04.016Z,64.54
2023-03-05T10:21:04.053Z,67.07
2023-03-05T10:22:04.046Z,68.40
2023-03-05T10:23:04.052Z,69.05
2023-03-05T10:24:04.055Z,67.65
2023-03-05T10:25:04.016Z,69.12
2023-03-05T10:26:04.024Z,69.73
2023-03-05T10:27:04.044Z,70.10
2023-03-05T10:28:03.997Z,69.79
2023-03-05T10:29:03.992Z,71.55
2023-03-05T10:30:03.985Z,71.34
2023-03-05T10:31:03.977Z,71.58
2023-03-05T10:32:04.109Z,71.69
2023-03-05T10:33:04.016Z,72.61
2023-03-05T10:34:03.943Z,72.78
2023-03-05T10:35:03.951Z,72.47
2023-03-05T10:36:03.937Z,73.30
2023-03-05T10:37:03.963Z,72.72
2023-03-05T10:38:03.938Z,71.28
2023-03-05T10:39:03.970Z,71.07
2023-03-05T10:40:03.904Z,71.69
2023-03-05T10:41:03.937Z,72.41
2023-03-05T10:42:03.937Z,72.41
2023-03-05T10:43:03.902Z,71.58
2023-03-05T10:44:03.899Z,71.58
2023-03-05T10:45:03.912Z,72.30
2023-03-05T10:46:03.968Z,72.47
2023-03-05T10:47:03.872Z,72.64
2023-03-05T10:48:04.508Z,72.64
2023-03-05T10:49:03.851Z,72.64
2023-03-05T10:50:03.869Z,72.68
2023-03-05T10:51:03.850Z,73.61
2023-03-05T10:52:03.840Z,73.47
2023-03-05T10:53:03.872Z,71.92
2023-03-05T10:54:03.879Z,70.00
2023-03-05T10:55:03.855Z,71.55
2023-03-05T10:56:03.827Z,72.37
2023-03-05T10:57:03.832Z,72.06
2023-03-05T10:58:03.815Z,70.83
2023-03-05T10:59:03.839Z,71.24
2023-03-05T11:00:03.812Z,72.06
2023-03-05T11:01:03.803Z,70.76
2023-03-05T11:02:03.815Z,71.48
2023-03-05T11:03:03.786Z,72.85
2023-03-05T11:04:03.854Z,72.54
2023-03-05T11:05:05.262Z,74.53
2023-03-05T11:06:04.768Z,74.77
2023-03-05T11:07:03.758Z,74.84
2023-03-05T11:08:03.767Z,76.29
2023-03-05T11:09:03.759Z,75.57
2023-03-05T11:10:03.772Z,76.77
2023-03-05T11:11:04.182Z,75.81
2023-03-05T11:12:04.800Z,76.12
2023-03-05T11:13:03.712Z,76.39
2023-03-05T11:14:03.761Z,76.29
2023-03-05T11:15:03.738Z,75.77
2023-03-05T11:16:03.799Z,75.46
2023-03-05T11:17:03.678Z,75.26
2023-03-05T11:18:04.594Z,76.18
2023-03-05T11:19:03.788Z,76.42
2023-03-05T11:20:03.697Z,77.56
2023-03-05T11:21:03.675Z,76.84
2023-03-05T11:22:03.659Z,77.35
2023-03-05T11:23:03.656Z,78.52
2023-03-05T11:24:03.659Z,79.08
2023-03-05T11:25:03.655Z,79.63
2023-03-05T11:26:03.651Z,79.66
2023-03-05T11:27:03.614Z,80.39
2023-03-05T11:28:03.641Z,80.25
2023-03-05T11:29:03.622Z,79.42
2023-03-05T11:30:03.616Z,79.38
2023-03-05T11:31:03.638Z,79.69
2023-03-05T11:32:03.598Z,78.87
2023-03-05T11:33:03.598Z,79.63
2023-03-05T11:34:03.616Z,79.52
2023-03-05T11:35:03.583Z,79.32
2023-03-05T11:36:03.576Z,78.25
2023-03-05T11:37:03.602Z,78.97
2023-03-05T11:38:03.555Z,78.87
2023-03-05T11:39:03.605Z,78.35
2023-03-05T11:40:03.554Z,78.25
2023-03-05T11:41:04.539Z,77.42
2023-03-05T11:42:03.524Z,78.66
2023-03-05T11:43:03.560Z,78.08
2023-03-05T11:44:03.525Z,77.80
2023-03-05T11:45:03.531Z,77.01
2023-03-05T11:46:03.659Z,77.11
2023-03-05T11:47:03.514Z,78.14
2023-03-05T11:48:03.508Z,77.84
2023-03-05T11:49:03.514Z,78.14
2023-03-05T11:50:03.500Z,79.22
2023-03-05T11:51:03.524Z,79.11
2023-03-05T11:52:03.484Z,78.39
2023-03-05T11:53:03.497Z,79.38
2023-03-05T11:54:03.470Z,79.04
2023-03-05T11:55:03.487Z,78.87
2023-03-05T11:56:03.458Z,78.31
2023-03-05T11:57:03.471Z,77.18
2023-03-05T11:58:03.425Z,78.90
2023-03-05T11:59:03.431Z,77.94
2023-03-05T12:00:03.466Z,74.98
2023-03-05T12:01:03.445Z,74.29
2023-03-05T12:02:03.417Z,72.30
2023-03-05T12:03:03.436Z,72.03
2023-03-05T12:04:03.474Z,70.70
2023-03-05T12:05:03.447Z,68.16
2023-03-05T12:06:04.403Z,69.80
2023-03-05T12:07:03.388Z,70.25
2023-03-05T12:08:03.397Z,71.31
2023-03-05T12:09:03.378Z,72.78
2023-03-05T12:10:03.418Z,74.12
2023-03-05T12:11:03.399Z,74.12
2023-03-05T12:12:03.372Z,72.68
2023-03-05T12:13:03.368Z,71.72
2023-03-05T12:14:03.380Z,70.79
2023-03-05T12:15:03.359Z,71.92
2023-03-05T12:16:03.388Z,71.48
2023-03-05T12:17:03.361Z,70.35
2023-03-05T12:18:03.334Z,72.47
2023-03-05T12:19:03.328Z,69.87
2023-03-05T12:20:04.352Z,68.91
2023-03-05T12:21:03.343Z,67.30
2023-03-05T12:22:03.351Z,67.54
2023-03-05T12:23:03.305Z,68.05
2023-03-05T12:24:03.329Z,69.01
2023-03-05T12:25:03.297Z,68.57
2023-03-05T12:26:03.286Z,68.13
2023-03-05T12:27:03.283Z,68.23
2023-03-05T12:28:03.316Z,68.16
2023-03-05T12:29:03.302Z,68.29
2023-03-05T12:30:04.393Z,67.81
2023-03-05T12:31:03.308Z,67.88
2023-03-05T12:32:03.290Z,67.54
2023-03-05T12:33:03.277Z,68.26
2023-03-05T12:34:03.569Z,67.85
2023-03-05T12:35:03.241Z,68.26
2023-03-05T12:36:03.316Z,69.18
2023-03-05T12:37:03.243Z,68.05
2023-03-05T12:38:17.228Z,67.17
2023-03-05T12:39:04.216Z,66.38
2023-03-05T12:40:03.270Z,66.82
2023-03-05T12:41:03.196Z,66.51
2023-03-05T12:42:03.204Z,67.88
2023-03-05T12:43:03.201Z,69.22
2023-03-05T12:44:03.195Z,70.14
2023-03-05T12:45:03.214Z,69.80
2023-03-05T12:46:03.165Z,69.53
2023-03-05T12:47:03.183Z,69.32
2023-03-05T12:48:03.168Z,69.35
2023-03-05T12:49:03.159Z,69.94
2023-03-05T12:50:03.173Z,69.46
2023-03-05T12:51:03.188Z,67.96
2023-03-05T12:52:03.136Z,65.16